Time;durP1;ratioP1;P1;durP2;ratioP2;P2;SDS_P1;SDS_P2;PMS_P1;PMS_P2;Temp;Humidity;BMP_temperature;BMP_pressure;BME280_temperature;BME280_humidity;BME280_pressure;Samples;Min_cycle;Max_cycle;Signal;HPM_P1;HPM_P2
2021/06/27 00:00:26;;;;;;;40.53;30.80;;;16.30;99.90;;;;;;5079506;28;20110;-65
2021/06/27 00:02:52;;;;;;;45.63;29.52;;;16.30;99.90;;;;;;5082147;28;20106;-65
2021/06/27 00:05:21;;;;;;;48.22;32.75;;;16.30;99.90;;;;;;5080827;28;20115;-65
2021/06/27 00:07:47;;;;;;;46.15;30.98;;;16.30;99.90;;;;;;5079121;28;20044;-65
2021/06/27 00:10:19;;;;;;;44.70;30.92;;;16.20;99.90;;;;;;5078206;28;20044;-65
2021/06/27 00:12:45;;;;;;;41.55;29.70;;;16.20;99.90;;;;;;5080750;28;20043;-65
2021/06/27 00:15:20;;;;;;;43.95;30.45;;;16.20;99.90;;;;;;5078112;28;20035;-65
2021/06/27 00:17:47;;;;;;;46.08;32.30;;;16.10;99.90;;;;;;5080386;28;20036;-65
2021/06/27 00:20:17;;;;;;;46.20;32.20;;;16.10;99.90;;;;;;5076762;28;20048;-65
2021/06/27 00:22:43;;;;;;;43.67;30.23;;;16.10;99.90;;;;;;5079796;28;20089;-65
2021/06/27 00:25:10;;;;;;;46.28;31.85;;;16.10;99.90;;;;;;5080441;28;20040;-65
2021/06/27 00:27:39;;;;;;;39.25;28.90;;;16.10;99.90;;;;;;5082584;28;20493;-65
2021/06/27 00:30:07;;;;;;;42.40;30.08;;;16.10;99.90;;;;;;5084558;28;20040;-65
2021/06/27 00:32:33;;;;;;;40.15;27.95;;;16.10;99.90;;;;;;5083838;28;20044;-65
2021/06/27 00:35:00;;;;;;;43.92;30.25;;;16.00;99.90;;;;;;5083008;28;20093;-65
2021/06/27 00:37:27;;;;;;;40.00;29.42;;;16.00;99.90;;;;;;5085446;28;20041;-65
2021/06/27 00:39:53;;;;;;;40.63;28.73;;;15.90;99.90;;;;;;5084068;28;20520;-65
2021/06/27 00:42:18;;;;;;;46.42;30.95;;;16.00;99.90;;;;;;5085194;28;20036;-65
2021/06/27 00:44:44;;;;;;;46.75;31.05;;;15.90;99.90;;;;;;5085362;28;20117;-65
2021/06/27 00:47:10;;;;;;;41.45;28.90;;;15.90;99.90;;;;;;5082787;28;20051;-65
2021/06/27 00:49:35;;;;;;;36.63;27.83;;;15.90;99.90;;;;;;5084651;28;20478;-65
2021/06/27 00:52:02;;;;;;;39.78;29.30;;;15.80;99.90;;;;;;5083168;28;20044;-65
2021/06/27 00:54:27;;;;;;;41.60;29.20;;;15.80;99.90;;;;;;5082991;28;20044;-65
2021/06/27 00:56:53;;;;;;;37.05;27.10;;;15.80;99.90;;;;;;5085541;28;20466;-65
2021/06/27 00:59:19;;;;;;;39.53;27.88;;;15.80;99.90;;;;;;5082700;28;20036;-65
2021/06/27 01:01:44;;;;;;;38.70;27.95;;;15.80;99.90;;;;;;5085234;28;20044;-65
2021/06/27 01:04:10;;;;;;;33.72;25.88;;;15.80;99.90;;;;;;5083894;28;20055;-65
2021/06/27 01:06:36;;;;;;;37.85;27.55;;;15.80;99.90;;;;;;5083001;28;20035;-65
2021/06/27 01:09:03;;;;;;;36.95;25.77;;;15.70;99.90;;;;;;5082070;28;20110;-65
2021/06/27 01:11:28;;;;;;;35.90;25.75;;;15.70;99.90;;;;;;5084743;28;20036;-65
2021/06/27 01:13:54;;;;;;;31.60;24.55;;;15.70;99.90;;;;;;5082766;28;20387;-65
2021/06/27 01:16:20;;;;;;;36.20;25.10;;;15.70;99.90;;;;;;5084804;28;20036;-65
2021/06/27 01:18:51;;;;;;;33.72;24.38;;;15.70;99.90;;;;;;5081971;28;20044;-65
2021/06/27 01:21:17;;;;;;;33.20;24.30;;;15.60;99.90;;;;;;5083076;28;20036;-65
2021/06/27 01:23:43;;;;;;;33.42;25.10;;;15.70;99.90;;;;;;5078823;28;20422;-64
2021/06/27 01:26:08;;;;;;;36.20;25.25;;;15.60;99.90;;;;;;5083268;28;20187;-65
2021/06/27 01:28:34;;;;;;;34.42;26.25;;;15.60;99.90;;;;;;5082737;28;20064;-64
2021/06/27 01:31:00;;;;;;;31.73;23.15;;;15.60;99.90;;;;;;5080408;28;20060;-65
2021/06/27 01:33:26;;;;;;;34.38;24.00;;;15.60;99.90;;;;;;5080796;28;20036;-65
2021/06/27 01:35:52;;;;;;;37.35;26.60;;;15.60;99.90;;;;;;5082183;28;20066;-65
2021/06/27 01:38:19;;;;;;;36.08;24.65;;;15.60;99.90;;;;;;5077919;28;20168;-65
2021/06/27 01:40:45;;;;;;;38.85;25.95;;;15.60;99.90;;;;;;5074142;28;20044;-64
2021/06/27 01:43:23;;;;;;;35.83;24.42;;;15.60;99.90;;;;;;5078603;28;20475;-65
2021/06/27 01:45:53;;;;;;;39.38;25.30;;;15.60;99.90;;;;;;5084830;28;20067;-65
2021/06/27 01:48:19;;;;;;;31.48;22.67;;;15.60;99.90;;;;;;5084081;28;20035;-64
2021/06/27 01:50:48;;;;;;;31.40;23.13;;;15.60;99.90;;;;;;5081265;28;20115;-65
2021/06/27 01:53:17;;;;;;;32.22;22.52;;;15.20;99.90;;;;;;5082218;28;20043;-65
2021/06/27 01:55:43;;;;;;;31.70;23.80;;;15.50;99.90;;;;;;5080938;28;20119;-65
2021/06/27 01:58:09;;;;;;;35.53;24.67;;;15.50;99.90;;;;;;5083147;28;20043;-65
2021/06/27 02:00:36;;;;;;;32.80;23.50;;;15.70;99.90;;;;;;5079543;28;20044;-65
2021/06/27 02:03:03;;;;;;;33.70;22.73;;;15.40;99.90;;;;;;5080762;28;20070;-64
2021/06/27 02:05:29;;;;;;;35.30;24.92;;;15.40;99.90;;;;;;5083306;28;20486;-64
2021/06/27 02:07:59;;;;;;;32.22;23.35;;;15.40;99.90;;;;;;5098289;28;20157;-64
2021/06/27 02:10:28;;;;;;;37.55;24.02;;;15.30;99.90;;;;;;5080770;28;20491;-65
2021/06/27 02:12:55;;;;;;;35.30;24.17;;;15.30;99.90;;;;;;5083277;28;20036;-65
2021/06/27 02:15:21;;;;;;;33.20;24.17;;;15.30;99.90;;;;;;5081847;28;20037;-64
2021/06/27 02:17:53;;;;;;;33.50;24.30;;;15.20;99.90;;;;;;5081272;28;20139;-64
2021/06/27 02:20:19;;;;;;;41.00;24.90;;;15.20;99.90;;;;;;5081245;28;20047;-64
2021/06/27 02:22:47;;;;;;;34.05;23.85;;;15.10;99.90;;;;;;5080768;28;20037;-64
2021/06/27 02:25:12;;;;;;;35.08;23.92;;;15.10;99.90;;;;;;5082641;28;20040;-64
2021/06/27 02:27:39;;;;;;;34.00;24.15;;;15.10;99.90;;;;;;5082736;28;20116;-64
2021/06/27 02:30:10;;;;;;;37.15;24.75;;;15.00;99.90;;;;;;5078902;28;20036;-64
2021/06/27 02:32:36;;;;;;;32.58;23.95;;;15.00;99.90;;;;;;5081258;28;20047;-64
2021/06/27 02:35:03;;;;;;;37.75;24.10;;;15.00;99.90;;;;;;5082280;28;20382;-64
2021/06/27 02:37:30;;;;;;;47.80;27.55;;;15.00;99.90;;;;;;5082821;28;20040;-64
2021/06/27 02:39:56;;;;;;;41.47;24.65;;;14.90;99.90;;;;;;5081202;28;20046;-64
2021/06/27 02:42:22;;;;;;;36.33;24.02;;;14.90;99.90;;;;;;5080911;28;20037;-64
2021/06/27 02:44:49;;;;;;;37.92;24.13;;;14.90;99.90;;;;;;5080994;28;20174;-64
2021/06/27 02:47:16;;;;;;;43.13;25.15;;;14.80;99.90;;;;;;5082209;28;20545;-64
2021/06/27 02:49:43;;;;;;;45.75;26.67;;;14.80;99.90;;;;;;5079611;28;20044;-64
2021/06/27 02:52:10;;;;;;;42.05;26.83;;;14.80;99.90;;;;;;5078435;28;20043;-64
2021/06/27 02:54:36;;;;;;;41.75;26.73;;;14.80;99.90;;;;;;5081066;28;20040;-64
2021/06/27 02:57:02;;;;;;;40.88;26.25;;;14.80;99.90;;;;;;5085463;28;20044;-64
2021/06/27 02:59:28;;;;;;;39.58;25.48;;;14.80;99.90;;;;;;5103123;28;20043;-64
2021/06/27 03:01:54;;;;;;;45.45;27.52;;;14.80;99.90;;;;;;5088453;28;20047;-64
2021/06/27 03:04:20;;;;;;;43.22;25.98;;;14.80;99.90;;;;;;5089266;28;20032;-64
2021/06/27 03:06:46;;;;;;;37.28;25.35;;;14.80;99.90;;;;;;5087108;28;20047;-64
2021/06/27 03:09:12;;;;;;;37.30;24.25;;;14.80;99.90;;;;;;5087234;28;20039;-64
2021/06/27 03:11:38;;;;;;;42.05;25.33;;;14.80;99.90;;;;;;5085786;28;20139;-64
2021/06/27 03:14:04;;;;;;;43.33;26.15;;;14.80;99.90;;;;;;5089177;28;20039;-64
2021/06/27 03:16:30;;;;;;;41.08;26.63;;;14.80;99.90;;;;;;5086398;28;20119;-64
2021/06/27 03:18:56;;;;;;;40.88;26.10;;;14.70;99.90;;;;;;5087228;28;20040;-64
2021/06/27 03:21:23;;;;;;;42.17;27.13;;;14.80;99.90;;;;;;5086300;28;20060;-64
2021/06/27 03:23:49;;;;;;;39.85;27.08;;;14.70;99.90;;;;;;5082615;28;20067;-64
2021/06/27 03:26:15;;;;;;;43.60;26.17;;;14.70;99.90;;;;;;5086357;28;20064;-64
2021/06/27 03:28:44;;;;;;;44.85;26.52;;;14.70;99.90;;;;;;5084392;28;20066;-64
2021/06/27 03:31:10;;;;;;;42.22;25.58;;;14.70;99.90;;;;;;5083507;28;20677;-64
2021/06/27 03:33:36;;;;;;;48.60;28.20;;;14.70;99.90;;;;;;5088444;28;20090;-64
2021/06/27 03:36:02;;;;;;;43.10;26.50;;;14.60;99.90;;;;;;5084155;28;20052;-65
2021/06/27 03:41:14;;;;;;;41.65;25.63;;;14.70;99.90;;;;;;5083326;28;20036;-64
2021/06/27 03:43:40;;;;;;;39.92;26.73;;;14.70;99.90;;;;;;5085644;28;20530;-64
2021/06/27 03:46:07;;;;;;;39.50;24.73;;;14.80;99.90;;;;;;5087506;28;20119;-64
2021/06/27 03:48:33;;;;;;;44.03;27.55;;;14.80;99.90;;;;;;5088730;28;20127;-64
2021/06/27 03:50:59;;;;;;;45.97;27.35;;;14.80;99.90;;;;;;5087624;28;20123;-64
2021/06/27 03:53:24;;;;;;;45.30;26.98;;;14.80;99.90;;;;;;5085457;28;20558;-64
2021/06/27 03:55:57;;;;;;;44.60;27.20;;;14.80;99.90;;;;;;5084943;28;20071;-64
2021/06/27 03:58:23;;;;;;;42.80;25.98;;;14.80;99.90;;;;;;5084903;28;20079;-64
2021/06/27 04:00:49;;;;;;;48.50;27.92;;;14.80;99.90;;;;;;5084712;28;20052;-64
2021/06/27 04:03:15;;;;;;;48.05;26.40;;;14.90;99.90;;;;;;5088013;28;20089;-64
2021/06/27 04:05:40;;;;;;;45.25;26.90;;;14.90;99.90;;;;;;5091290;28;20037;-64
2021/06/27 04:08:06;;;;;;;48.28;27.25;;;14.90;99.90;;;;;;5091973;28;20490;-64
2021/06/27 04:10:33;;;;;;;43.80;27.08;;;14.90;99.90;;;;;;5089012;28;20428;-64
2021/06/27 04:12:58;;;;;;;47.60;27.08;;;14.90;99.90;;;;;;5090467;28;20035;-64
2021/06/27 04:15:24;;;;;;;45.65;26.27;;;14.90;99.90;;;;;;5089599;28;20064;-64
2021/06/27 04:17:50;;;;;;;47.55;27.38;;;15.00;99.90;;;;;;5091668;28;20093;-64
2021/06/27 04:20:16;;;;;;;62.75;32.25;;;15.00;99.90;;;;;;5090784;28;20070;-64
2021/06/27 04:22:42;;;;;;;64.50;31.73;;;15.10;99.90;;;;;;5085202;28;20513;-64
2021/06/27 04:25:09;;;;;;;67.88;31.60;;;15.10;99.90;;;;;;5089931;28;20044;-65
2021/06/27 04:27:35;;;;;;;97.65;33.83;;;15.20;99.90;;;;;;5089113;28;20051;-64
2021/06/27 04:30:01;;;;;;;80.20;32.38;;;15.20;99.90;;;;;;5090816;28;20044;-64
2021/06/27 04:32:26;;;;;;;118.43;35.50;;;15.30;99.90;;;;;;5089985;28;20098;-64
2021/06/27 04:34:53;;;;;;;118.03;34.90;;;15.30;99.90;;;;;;5088499;28;20032;-65
2021/06/27 04:37:19;;;;;;;154.90;36.40;;;15.30;99.90;;;;;;5085914;28;20643;-64
2021/06/27 04:39:47;;;;;;;163.70;39.60;;;15.30;99.90;;;;;;5090530;28;20169;-65
2021/06/27 04:42:13;;;;;;;125.90;34.30;;;15.30;99.90;;;;;;5090673;28;20052;-64
2021/06/27 04:44:39;;;;;;;123.15;35.10;;;15.40;99.90;;;;;;5090139;28;20482;-64
2021/06/27 04:47:05;;;;;;;76.50;30.50;;;15.50;99.90;;;;;;5091586;28;20061;-64
2021/06/27 04:49:31;;;;;;;131.82;37.42;;;15.50;99.90;;;;;;5089961;28;20032;-64
2021/06/27 04:51:56;;;;;;;86.70;33.45;;;15.50;99.90;;;;;;5087236;28;20051;-64
2021/06/27 04:54:22;;;;;;;85.63;30.42;;;15.60;99.90;;;;;;5089375;28;20028;-64
2021/06/27 04:56:48;;;;;;;87.78;33.70;;;15.60;99.90;;;;;;5091095;28;20117;-64
2021/06/27 04:59:14;;;;;;;92.28;33.05;;;15.70;99.90;;;;;;5088752;28;20032;-64
2021/06/27 05:01:40;;;;;;;88.43;32.35;;;15.70;99.90;;;;;;5087066;28;20354;-64
2021/06/27 05:04:06;;;;;;;68.07;29.48;;;15.70;99.90;;;;;;5090408;28;20111;-64
2021/06/27 05:06:31;;;;;;;56.50;28.92;;;15.70;99.90;;;;;;5088165;28;20037;-64
2021/06/27 05:08:57;;;;;;;57.50;30.73;;;15.80;99.90;;;;;;5089656;28;20036;-64
2021/06/27 05:11:23;;;;;;;56.35;29.00;;;15.90;99.90;;;;;;5085386;28;20040;-64
2021/06/27 05:13:48;;;;;;;59.65;30.95;;;15.90;99.90;;;;;;5085648;28;20123;-64
2021/06/27 05:16:14;;;;;;;49.50;27.73;;;16.00;99.90;;;;;;5084740;28;20113;-64
2021/06/27 05:18:40;;;;;;;59.42;30.20;;;16.00;99.90;;;;;;5085322;28;20517;-65
2021/06/27 05:21:05;;;;;;;49.03;28.50;;;16.10;99.90;;;;;;5081186;28;20379;-64
2021/06/27 05:23:31;;;;;;;41.92;26.85;;;16.10;99.90;;;;;;5084221;28;20047;-64
2021/06/27 05:25:57;;;;;;;44.78;26.85;;;16.20;99.90;;;;;;5082557;28;20568;-64
2021/06/27 05:28:23;;;;;;;45.60;26.95;;;16.30;99.90;;;;;;5083683;28;20386;-64
2021/06/27 05:30:48;;;;;;;40.42;25.80;;;16.30;99.90;;;;;;5080605;28;20125;-64
2021/06/27 05:33:14;;;;;;;42.30;28.13;;;16.40;99.90;;;;;;5081506;28;20047;-64
2021/06/27 05:35:40;;;;;;;38.08;25.67;;;16.60;99.90;;;;;;5082825;28;20044;-64
2021/06/27 05:38:06;;;;;;;39.53;25.02;;;16.60;99.90;;;;;;5083090;28;20039;-64
2021/06/27 05:40:31;;;;;;;33.58;24.50;;;16.70;99.90;;;;;;5083160;28;20644;-64
2021/06/27 05:42:57;;;;;;;35.28;23.52;;;16.80;99.90;;;;;;5083369;28;20137;-64
2021/06/27 05:45:23;;;;;;;34.15;24.33;;;16.90;99.90;;;;;;5084432;28;20087;-64
2021/06/27 05:47:49;;;;;;;34.97;24.58;;;17.00;99.90;;;;;;5081050;28;21105;-64
2021/06/27 05:50:14;;;;;;;36.03;25.77;;;17.00;99.90;;;;;;5081622;28;20159;-64
2021/06/27 05:52:40;;;;;;;34.22;25.45;;;17.10;99.90;;;;;;5082283;28;20573;-64
2021/06/27 05:55:06;;;;;;;29.70;23.30;;;17.20;99.90;;;;;;5084092;28;20033;-64
2021/06/27 05:57:33;;;;;;;32.78;25.55;;;17.50;99.90;;;;;;5080927;28;20054;-64
2021/06/27 05:59:58;;;;;;;27.05;22.17;;;17.70;99.90;;;;;;5080797;28;20044;-65
2021/06/27 06:02:24;;;;;;;27.20;21.70;;;17.90;99.90;;;;;;5082866;28;20437;-65
2021/06/27 06:04:49;;;;;;;26.13;20.77;;;18.10;99.90;;;;;;5080313;28;20551;-65
2021/06/27 06:07:15;;;;;;;26.33;19.95;;;18.30;99.90;;;;;;5083754;28;20064;-65
2021/06/27 06:09:41;;;;;;;23.17;19.75;;;18.50;99.90;;;;;;5083937;28;20040;-65
2021/06/27 06:12:07;;;;;;;22.23;18.80;;;18.70;99.90;;;;;;5079399;28;20041;-65
2021/06/27 06:14:33;;;;;;;22.88;19.25;;;18.90;99.90;;;;;;5081398;28;20036;-65
2021/06/27 06:16:58;;;;;;;21.52;18.23;;;19.30;99.90;;;;;;5081901;28;20390;-65
2021/06/27 06:19:24;;;;;;;22.67;18.23;;;19.60;99.90;;;;;;5082754;28;20123;-65
2021/06/27 06:21:50;;;;;;;24.15;18.98;;;19.90;99.90;;;;;;5079950;28;20137;-65
2021/06/27 06:24:17;;;;;;;20.20;18.13;;;20.10;99.90;;;;;;5081289;28;20383;-65
2021/06/27 06:26:43;;;;;;;21.10;17.75;;;20.00;99.90;;;;;;5081060;28;20059;-65
2021/06/27 06:29:08;;;;;;;20.33;18.02;;;20.20;99.90;;;;;;5082132;28;20062;-65
2021/06/27 06:31:34;;;;;;;18.65;16.67;;;20.30;99.90;;;;;;5077932;28;20028;-65
2021/06/27 06:34:00;;;;;;;20.85;17.75;;;20.60;99.90;;;;;;5080411;28;20051;-65
2021/06/27 06:36:25;;;;;;;21.88;17.92;;;20.70;99.90;;;;;;5079627;28;20044;-65
2021/06/27 06:38:52;;;;;;;19.52;16.58;;;20.70;99.90;;;;;;5077433;28;20044;-65
2021/06/27 06:41:18;;;;;;;18.90;17.00;;;20.90;99.90;;;;;;5086520;28;20082;-65
2021/06/27 06:43:44;;;;;;;18.13;15.70;;;20.90;99.90;;;;;;5082045;28;20310;-65
2021/06/27 06:46:10;;;;;;;18.67;16.70;;;21.10;99.90;;;;;;5078855;28;20032;-65
2021/06/27 06:48:36;;;;;;;19.58;17.42;;;21.20;99.90;;;;;;5078070;28;20081;-65
2021/06/27 06:51:02;;;;;;;18.33;16.42;;;21.30;99.90;;;;;;5080175;28;20044;-65
2021/06/27 06:53:28;;;;;;;19.23;16.85;;;21.60;99.90;;;;;;5080394;28;20036;-65
2021/06/27 06:55:56;;;;;;;19.85;16.02;;;21.80;99.90;;;;;;5080155;28;20044;-65
2021/06/27 06:58:27;;;;;;;17.70;15.80;;;22.00;99.90;;;;;;5082796;28;20089;-65
2021/06/27 07:00:53;;;;;;;19.13;17.10;;;22.20;99.90;;;;;;5076733;28;20573;-65
2021/06/27 07:03:19;;;;;;;18.10;16.20;;;22.40;99.90;;;;;;5084020;28;20119;-65
2021/06/27 07:05:45;;;;;;;18.77;16.83;;;22.60;99.70;;;;;;5082222;28;20036;-64
2021/06/27 07:08:11;;;;;;;31.85;17.92;;;22.60;99.50;;;;;;5080359;28;20044;-64
2021/06/27 07:10:37;;;;;;;18.80;16.60;;;22.50;99.30;;;;;;5079570;28;20054;-65
2021/06/27 07:13:03;;;;;;;19.23;16.52;;;22.50;99.30;;;;;;5082736;28;20040;-65
2021/06/27 07:15:29;;;;;;;18.50;15.93;;;22.60;99.20;;;;;;5082004;28;20036;-65
2021/06/27 07:17:54;;;;;;;19.35;17.40;;;22.70;98.80;;;;;;5080693;28;20044;-65
2021/06/27 07:20:20;;;;;;;19.80;16.52;;;22.80;98.30;;;;;;5081106;28;20040;-65
2021/06/27 07:22:46;;;;;;;19.23;16.25;;;22.80;97.80;;;;;;5080225;28;20048;-65
2021/06/27 07:25:12;;;;;;;17.90;16.00;;;22.70;97.90;;;;;;5082712;28;20036;-65
2021/06/27 07:27:38;;;;;;;20.95;17.02;;;22.80;97.80;;;;;;5081151;28;20066;-65
2021/06/27 07:30:08;;;;;;;19.95;17.83;;;22.60;97.90;;;;;;5082333;28;20037;-65
2021/06/27 07:32:34;;;;;;;19.83;16.98;;;22.50;97.70;;;;;;5079827;28;20936;-65
2021/06/27 07:35:00;;;;;;;18.35;15.07;;;22.60;98.20;;;;;;5081778;28;20540;-65
2021/06/27 07:37:25;;;;;;;18.02;15.40;;;22.80;98.00;;;;;;5079181;28;20036;-65
2021/06/27 07:39:51;;;;;;;18.30;16.40;;;22.90;97.80;;;;;;5082412;28;20027;-65
2021/06/27 07:42:17;;;;;;;18.10;15.10;;;23.00;98.00;;;;;;5081740;28;20039;-65
2021/06/27 07:44:42;;;;;;;15.90;14.20;;;23.10;98.00;;;;;;5080407;28;20048;-65
2021/06/27 07:47:08;;;;;;;15.43;13.93;;;23.20;97.80;;;;;;5078456;28;20101;-65
2021/06/27 07:49:34;;;;;;;18.35;15.55;;;23.20;97.80;;;;;;5079833;28;20056;-65
2021/06/27 07:51:59;;;;;;;15.32;13.80;;;23.20;97.80;;;;;;5080816;28;20043;-65
2021/06/27 07:54:25;;;;;;;15.73;14.13;;;23.20;97.70;;;;;;5083522;28;20032;-65
2021/06/27 07:56:51;;;;;;;15.98;14.38;;;23.30;98.20;;;;;;5078819;28;20040;-65
2021/06/27 07:59:17;;;;;;;14.35;12.88;;;23.50;98.00;;;;;;5084041;28;20460;-65
2021/06/27 08:01:43;;;;;;;14.63;13.10;;;23.70;97.60;;;;;;5080492;28;20086;-65
2021/06/27 08:04:09;;;;;;;16.63;14.85;;;23.70;96.80;;;;;;5080157;28;20063;-65
2021/06/27 08:06:35;;;;;;;15.10;13.05;;;23.60;97.00;;;;;;5080754;28;20040;-65
2021/06/27 08:09:00;;;;;;;15.38;13.88;;;23.70;97.40;;;;;;5080818;28;20100;-65
2021/06/27 08:11:26;;;;;;;17.33;14.75;;;23.60;97.20;;;;;;5081588;28;20429;-65
2021/06/27 08:13:52;;;;;;;15.10;13.60;;;23.70;96.90;;;;;;5077980;28;20036;-65
2021/06/27 08:16:18;;;;;;;16.42;13.85;;;23.80;97.10;;;;;;5082062;28;20044;-65
2021/06/27 08:18:43;;;;;;;15.25;13.65;;;23.90;96.80;;;;;;5080150;28;20036;-65
2021/06/27 08:21:09;;;;;;;14.95;13.43;;;23.90;97.10;;;;;;5081432;28;20046;-65
2021/06/27 08:23:35;;;;;;;14.85;12.68;;;23.80;97.10;;;;;;5079344;28;20038;-65
2021/06/27 08:26:01;;;;;;;15.35;13.65;;;23.90;96.20;;;;;;5080329;28;20086;-65
2021/06/27 08:28:26;;;;;;;14.10;12.70;;;23.80;96.80;;;;;;5078908;28;20024;-65
2021/06/27 08:30:52;;;;;;;13.55;12.15;;;23.70;97.00;;;;;;5082287;28;20040;-65
2021/06/27 08:33:18;;;;;;;14.88;13.32;;;23.80;97.10;;;;;;5079914;28;20427;-65
2021/06/27 08:35:44;;;;;;;14.48;12.98;;;23.90;96.70;;;;;;5081493;28;20444;-65
2021/06/27 08:38:11;;;;;;;13.85;12.55;;;23.90;96.70;;;;;;5078115;28;20067;-65
2021/06/27 08:40:37;;;;;;;13.68;12.43;;;24.00;97.00;;;;;;5078288;28;20097;-65
2021/06/27 08:43:10;;;;;;;15.25;13.07;;;24.00;96.70;;;;;;5076656;28;20048;-65
2021/06/27 08:45:51;;;;;;;15.32;12.90;;;24.10;96.90;;;;;;5079798;28;20185;-65
2021/06/27 08:48:22;;;;;;;13.27;11.88;;;24.10;96.90;;;;;;5080584;28;20040;-65
2021/06/27 08:50:50;;;;;;;15.90;12.70;;;24.20;96.80;;;;;;5082192;28;20417;-65
2021/06/27 08:53:16;;;;;;;15.82;13.25;;;24.20;97.10;;;;;;5081562;28;20029;-65
2021/06/27 08:55:42;;;;;;;13.48;12.27;;;24.30;97.00;;;;;;5083651;28;20048;-65
2021/06/27 08:58:09;;;;;;;15.05;13.55;;;24.20;96.70;;;;;;5082258;28;20069;-65
2021/06/27 09:00:37;;;;;;;14.43;13.02;;;24.20;96.20;;;;;;5085613;28;20517;-65
2021/06/27 09:03:07;;;;;;;13.48;12.15;;;24.40;96.70;;;;;;5084556;28;20036;-65
2021/06/27 09:05:34;;;;;;;13.35;12.00;;;24.40;96.60;;;;;;5085475;28;20035;-65
2021/06/27 09:08:16;;;;;;;14.30;12.02;;;24.40;96.40;;;;;;5086652;28;20496;-65
2021/06/27 09:10:42;;;;;;;14.25;12.70;;;24.30;95.30;;;;;;5085163;28;20040;-65
2021/06/27 09:13:09;;;;;;;13.23;11.93;;;24.40;95.60;;;;;;5086607;28;20070;-65
2021/06/27 09:15:43;;;;;;;15.23;12.48;;;24.40;96.00;;;;;;5082116;28;20096;-65
2021/06/27 09:18:15;;;;;;;15.95;11.88;;;24.40;96.20;;;;;;5084535;28;20067;-65
2021/06/27 09:20:42;;;;;;;12.35;11.02;;;24.40;95.90;;;;;;5083804;28;20978;-65
2021/06/27 09:23:09;;;;;;;12.68;11.32;;;24.40;96.60;;;;;;5083515;28;20031;-65
2021/06/27 09:25:36;;;;;;;14.15;12.85;;;24.50;96.60;;;;;;5084058;28;20150;-65
2021/06/27 09:28:16;;;;;;;14.73;12.80;;;24.50;96.00;;;;;;5082904;28;20039;-65
2021/06/27 09:30:49;;;;;;;14.98;13.48;;;24.50;96.10;;;;;;5084801;28;20390;-65
2021/06/27 09:33:23;;;;;;;15.77;11.88;;;24.30;96.10;;;;;;5082586;28;20047;-65
2021/06/27 09:35:55;;;;;;;15.52;12.38;;;24.20;96.50;;;;;;5084869;28;20111;-65
2021/06/27 09:38:23;;;;;;;12.30;11.07;;;24.00;96.70;;;;;;5084304;28;20048;-65
2021/06/27 09:40:55;;;;;;;13.35;12.10;;;24.00;96.60;;;;;;5086165;28;20477;-65
2021/06/27 09:43:22;;;;;;;13.48;12.15;;;23.80;96.60;;;;;;5084517;28;20062;-65
2021/06/27 09:45:54;;;;;;;14.18;12.30;;;23.80;97.40;;;;;;5084025;28;20036;-65
2021/06/27 09:48:20;;;;;;;15.18;12.48;;;23.70;97.50;;;;;;5085587;28;20115;-65
2021/06/27 09:50:46;;;;;;;16.08;12.52;;;23.70;97.90;;;;;;5082927;28;20035;-65
2021/06/27 09:53:31;;;;;;;14.02;12.60;;;23.60;97.90;;;;;;5085983;28;20036;-65
2021/06/27 09:55:58;;;;;;;;;;;23.60;97.70;;;;;;5082370;28;20070;-65
2021/06/27 09:58:24;;;;;;;12.75;11.52;;;23.40;98.30;;;;;;5082440;28;19927;-65
2021/06/27 10:00:50;;;;;;;13.32;11.90;;;23.40;98.10;;;;;;5083543;28;20646;-65
2021/06/27 10:03:16;;;;;;;12.65;11.38;;;23.40;98.30;;;;;;5080811;28;20036;-65
2021/06/27 10:05:42;;;;;;;12.95;11.65;;;23.50;98.70;;;;;;5081689;28;20467;-65
2021/06/27 10:08:07;;;;;;;13.95;12.25;;;23.50;98.40;;;;;;5079621;28;20257;-64
2021/06/27 10:10:33;;;;;;;13.68;12.27;;;23.60;98.30;;;;;;5086083;28;20063;-65
2021/06/27 10:13:01;;;;;;;14.48;11.70;;;23.60;98.20;;;;;;5083237;28;20039;-65
2021/06/27 10:15:44;;;;;;;12.35;11.00;;;23.70;97.90;;;;;;5080068;28;20044;-65
2021/06/27 10:18:11;;;;;;;12.90;11.57;;;23.80;97.50;;;;;;5080184;28;20044;-65
2021/06/27 10:20:38;;;;;;;10.90;9.80;;;23.90;97.50;;;;;;5081861;28;20047;-65
2021/06/27 10:23:04;;;;;;;15.30;11.80;;;23.90;97.60;;;;;;5083860;28;20616;-65
2021/06/27 10:25:30;;;;;;;11.57;10.45;;;24.00;98.00;;;;;;5084400;28;20127;-65
2021/06/27 10:27:56;;;;;;;12.30;11.15;;;24.20;97.30;;;;;;5082993;28;20130;-65
2021/06/27 10:30:22;;;;;;;12.48;10.93;;;24.20;97.00;;;;;;5082373;28;20504;-65
2021/06/27 10:32:49;;;;;;;12.63;9.90;;;24.10;96.20;;;;;;5083714;28;20044;-65
2021/06/27 10:35:15;;;;;;;12.23;11.02;;;24.20;97.10;;;;;;5082684;28;20151;-65
2021/06/27 10:37:43;;;;;;;11.32;10.25;;;24.20;97.30;;;;;;5081493;28;20108;-65
2021/06/27 10:40:14;;;;;;;12.65;10.68;;;24.30;96.60;;;;;;5080388;28;20040;-65
2021/06/27 10:42:49;;;;;;;12.38;11.02;;;24.30;96.50;;;;;;5079573;28;20052;-65
2021/06/27 10:45:18;;;;;;;11.68;10.57;;;24.20;97.40;;;;;;5082580;28;20032;-65
2021/06/27 10:47:44;;;;;;;12.65;11.38;;;24.20;96.40;;;;;;5082956;28;20028;-65
2021/06/27 10:50:12;;;;;;;11.30;10.18;;;24.00;95.90;;;;;;5081116;28;20414;-65
2021/06/27 10:52:57;;;;;;;11.45;10.43;;;23.90;97.10;;;;;;5084845;28;20114;-65
2021/06/27 10:55:29;;;;;;;10.88;9.88;;;24.00;96.80;;;;;;5083245;28;20500;-65
2021/06/27 10:58:06;;;;;;;11.63;10.52;;;24.00;97.10;;;;;;5083877;28;20032;-65
2021/06/27 11:00:55;;;;;;;13.75;10.55;;;24.00;96.90;;;;;;5080945;28;20040;-65
2021/06/27 11:03:37;;;;;;;12.50;11.35;;;24.10;97.30;;;;;;5083758;28;20549;-65
2021/06/27 11:06:05;;;;;;;11.88;10.77;;;24.20;97.20;;;;;;5081545;28;20047;-65
2021/06/27 11:08:40;;;;;;;11.30;10.10;;;24.30;96.90;;;;;;5081586;28;20044;-65
2021/06/27 11:11:21;;;;;;;11.63;10.48;;;24.40;96.70;;;;;;5082021;28;20036;-65
2021/06/27 11:14:26;;;;;;;10.73;9.60;;;24.60;96.10;;;;;;5083140;28;20047;-65
2021/06/27 11:16:59;;;;;;;13.75;11.65;;;24.90;95.80;;;;;;5061416;28;20070;-65
2021/06/27 11:19:33;;;;;;;12.30;11.15;;;24.90;95.50;;;;;;5059741;28;20064;-65
2021/06/27 11:22:21;;;;;;;14.45;11.27;;;24.70;95.60;;;;;;5072969;28;20382;-65
2021/06/27 11:24:53;;;;;;;13.05;11.70;;;24.80;95.20;;;;;;5082227;28;20451;-65
2021/06/27 11:27:32;;;;;;;12.38;11.25;;;24.80;95.60;;;;;;5081468;28;20494;-65
2021/06/27 11:29:59;;;;;;;13.25;11.88;;;24.90;96.10;;;;;;5082423;28;20040;-65
2021/06/27 11:32:25;;;;;;;13.23;11.00;;;24.80;95.70;;;;;;5083847;28;20047;-65
2021/06/27 11:34:55;;;;;;;11.90;10.75;;;25.00;96.30;;;;;;5083741;28;20036;-65
2021/06/27 11:37:40;;;;;;;12.02;10.82;;;25.20;95.90;;;;;;5083321;28;20063;-65
2021/06/27 11:40:06;;;;;;;11.52;10.52;;;25.20;95.00;;;;;;5082622;28;20040;-65
2021/06/27 11:42:35;;;;;;;11.73;10.63;;;25.20;94.60;;;;;;5081382;28;20497;-65
2021/06/27 11:45:07;;;;;;;11.77;9.68;;;25.10;94.50;;;;;;5080559;28;20043;-65
2021/06/27 11:47:46;;;;;;;10.68;9.57;;;25.10;96.20;;;;;;5080967;28;20067;-65
2021/06/27 11:50:18;;;;;;;10.55;9.10;;;25.20;95.40;;;;;;5082165;28;20082;-65
2021/06/27 11:52:50;;;;;;;10.13;9.18;;;25.30;94.60;;;;;;5078969;28;20047;-65
2021/06/27 11:55:16;;;;;;;10.02;8.30;;;25.40;95.10;;;;;;5080045;28;20513;-65
2021/06/27 11:57:43;;;;;;;9.85;8.90;;;25.50;95.30;;;;;;5077440;28;20060;-65
2021/06/27 12:00:12;;;;;;;10.52;8.52;;;25.50;94.40;;;;;;5080958;28;20122;-65
2021/06/27 12:02:38;;;;;;;9.32;8.50;;;25.40;94.10;;;;;;5082824;28;20141;-65
2021/06/27 12:05:13;;;;;;;8.68;7.82;;;25.40;93.60;;;;;;5083851;28;20040;-65
2021/06/27 12:07:42;;;;;;;9.50;7.82;;;25.50;93.90;;;;;;5081021;28;20044;-65
2021/06/27 12:10:17;;;;;;;8.68;7.78;;;25.60;94.00;;;;;;5083768;28;20032;-65
2021/06/27 12:12:58;;;;;;;9.10;8.20;;;25.60;93.60;;;;;;5081339;28;20529;-65
2021/06/27 12:15:39;;;;;;;9.75;8.25;;;25.60;93.90;;;;;;5082927;28;20036;-65
2021/06/27 12:18:04;;;;;;;8.95;8.15;;;25.60;94.40;;;;;;5079558;28;20402;-65
2021/06/27 12:20:38;;;;;;;8.65;7.80;;;25.70;93.40;;;;;;5083088;28;20092;-65
2021/06/27 12:23:07;;;;;;;8.75;7.95;;;25.70;94.60;;;;;;5080885;28;20028;-65
2021/06/27 12:25:57;;;;;;;8.63;7.53;;;25.70;93.80;;;;;;5086895;28;20036;-65
2021/06/27 12:28:44;;;;;;;9.52;8.32;;;25.70;95.40;;;;;;5085994;28;20044;-65
2021/06/27 12:31:17;;;;;;;8.75;7.95;;;25.60;93.50;;;;;;5087379;28;20036;-65
2021/06/27 12:33:46;;;;;;;9.07;8.18;;;25.60;94.00;;;;;;5082720;28;20131;-65